Time,TemperatureF,DewpointF,PressureIn,WindDirection,WindDirectionDegrees,WindSpeedMPH,WindSpeedGustMPH,Humidity,HourlyPrecipIn,Conditions,Clouds,dailyrainin,SoftwareType,DateUTC
2013-03-08 00:02:00,31.0,30.0,-100.00,SE,139,1.0,6.0,94,6.22,,,-99.99,,2013-03-08 05:02:00,
2013-03-08 00:12:00,31.0,30.0,-100.00,South,187,2.0,6.0,94,0.00,,,-99.99,,2013-03-08 05:12:00,
2013-03-08 00:22:00,32.0,32.0,-100.00,SSE,153,1.0,6.0,94,1.14,,,-99.99,,2013-03-08 05:22:00,
2013-03-08 00:33:00,31.0,30.0,-100.00,SSE,158,1.0,6.0,95,2.83,,,-99.99,,2013-03-08 05:33:00,
2013-03-08 00:42:00,31.0,30.0,-100.00,ESE,115,0.0,6.0,94,15.31,,,-99.99,,2013-03-08 05:42:00,
2013-03-08 00:52:00,32.0,32.0,-100.00,South,189,1.0,6.0,95,0.00,,,-99.99,,2013-03-08 05:52:00,
2013-03-08 01:02:00,32.0,32.0,-100.00,SE,138,2.0,6.0,94,0.00,,,-99.99,,2013-03-08 06:02:00,
2013-03-08 01:11:00,31.0,30.0,-100.00,SSE,153,2.0,6.0,94,0.00,,,-99.99,,2013-03-08 06:11:00,
2013-03-08 01:22:00,31.0,30.0,-100.00,SE,125,1.0,6.0,93,0.00,,,-99.99,,2013-03-08 06:22:00,
2013-03-08 01:32:00,31.0,30.0,-100.00,SSE,168,1.0,6.0,91,0.00,,,-99.99,,2013-03-08 06:32:00,
2013-03-08 01:42:00,31.0,28.0,-100.00,SE,145,1.0,6.0,91,0.00,,,-99.99,,2013-03-08 06:42:00,
2013-03-08 01:52:00,31.0,30.0,-100.00,SSE,168,1.0,6.0,91,0.00,,,-99.99,,2013-03-08 06:52:00,
2013-03-08 02:01:00,31.0,28.0,-100.00,SE,135,1.0,6.0,90,0.00,,,-99.99,,2013-03-08 07:01:00,
2013-03-08 02:11:00,30.0,28.0,-100.00,SSE,148,1.0,6.0,90,0.00,,,-99.99,,2013-03-08 07:11:00,
2013-03-08 02:22:00,29.0,27.0,-100.00,SE,136,0.0,6.0,90,0.00,,,-99.99,,2013-03-08 07:22:00,
2013-03-08 02:32:00,30.0,28.0,-100.00,SSE,158,0.0,6.0,90,0.00,,,-99.99,,2013-03-08 07:32:00,
2013-03-08 02:42:00,30.0,28.0,-100.00,SE,144,0.0,6.0,90,0.00,,,-99.99,,2013-03-08 07:42:00,
2013-03-08 02:52:00,30.0,28.0,-100.00,SSE,168,0.0,6.0,89,0.00,,,-99.99,,2013-03-08 07:52:00,
2013-03-08 03:01:00,31.0,28.0,-100.00,SE,141,0.0,0.0,89,0.00,,,-99.99,,2013-03-08 08:01:00,
2013-03-08 03:11:00,30.0,28.0,-100.00,East,88,0.0,0.0,89,0.00,,,-99.99,,2013-03-08 08:11:00,
2013-03-08 03:22:00,30.0,28.0,-100.00,SE,139,0.0,0.0,89,0.00,,,-99.99,,2013-03-08 08:22:00,
2013-03-08 03:32:00,30.0,28.0,-100.00,SE,142,1.0,1.0,90,0.00,,,-99.99,,2013-03-08 08:32:00,
2013-03-08 03:42:00,29.0,28.0,-100.00,ESE,122,0.0,1.0,91,0.00,,,-99.99,,2013-03-08 08:42:00,
2013-03-08 03:52:00,29.0,27.0,-100.00,ESE,114,0.0,1.0,91,0.00,,,-99.99,,2013-03-08 08:52:00,
2013-03-08 04:03:00,29.0,27.0,-100.00,SSE,151,0.0,1.0,91,0.00,,,-99.99,,2013-03-08 09:03:00,
2013-03-08 04:11:00,29.0,28.0,-100.00,SE,138,0.0,1.0,91,0.00,,,-99.99,,2013-03-08 09:11:00,
2013-03-08 04:22:00,29.0,28.0,-100.00,SSE,155,1.0,1.0,93,0.00,,,-99.99,,2013-03-08 09:22:00,
2013-03-08 04:32:00,28.0,27.0,-100.00,SSE,151,0.0,1.0,91,0.00,,,-99.99,,2013-03-08 09:32:00,
2013-03-08 04:42:00,28.0,28.0,-100.00,SE,146,1.0,1.0,94,0.00,,,-99.99,,2013-03-08 09:42:00,
2013-03-08 04:52:00,28.0,27.0,-100.00,South,176,1.0,1.0,93,0.00,,,-99.99,,2013-03-08 09:52:00,
2013-03-08 05:01:00,28.0,28.0,-100.00,SSW,194,1.0,1.0,94,0.00,,,-99.99,,2013-03-08 10:01:00,
2013-03-08 05:11:00,28.0,27.0,-100.00,SE,142,1.0,1.0,94,0.00,,,-99.99,,2013-03-08 10:11:00,
2013-03-08 05:21:00,28.0,28.0,-100.00,South,170,1.0,2.0,94,0.00,,,-99.99,,2013-03-08 10:21:00,
2013-03-08 05:32:00,28.0,27.0,-100.00,SE,132,1.0,2.0,94,0.00,,,-99.99,,2013-03-08 10:32:00,
2013-03-08 05:42:00,27.0,27.0,-100.00,SSE,166,1.0,2.0,93,0.00,,,-99.99,,2013-03-08 10:42:00,
2013-03-08 05:52:00,27.0,27.0,-100.00,SE,136,1.0,2.0,94,0.00,,,-99.99,,2013-03-08 10:52:00,
2013-03-08 06:11:00,26.0,25.0,-100.00,East,80,0.0,2.0,93,0.00,,,-99.99,,2013-03-08 11:11:00,
2013-03-08 06:22:00,26.0,25.0,-100.00,ESE,120,0.0,2.0,94,0.00,,,-99.99,,2013-03-08 11:22:00,
2013-03-08 06:42:00,26.0,25.0,-100.00,SE,146,0.0,2.0,93,0.00,,,-99.99,,2013-03-08 11:42:00,
2013-03-08 06:52:00,25.0,25.0,-100.00,SE,138,0.0,2.0,94,0.00,,,-99.99,,2013-03-08 11:52:00,
2013-03-08 07:02:00,25.0,25.0,-100.00,ESE,120,0.0,2.0,95,0.00,,,-99.99,,2013-03-08 12:02:00,
2013-03-08 07:11:00,25.0,25.0,-100.00,SE,146,0.0,2.0,94,0.00,,,-99.99,,2013-03-08 12:11:00,
2013-03-08 07:22:00,26.0,25.0,-100.00,ESE,107,0.0,2.0,94,0.00,,,-99.99,,2013-03-08 12:22:00,
2013-03-08 07:32:00,26.0,25.0,-100.00,SE,135,0.0,2.0,95,0.00,,,-99.99,,2013-03-08 12:32:00,
2013-03-08 07:52:00,27.0,27.0,-100.00,SSE,148,0.0,2.0,97,0.00,,,-99.99,,2013-03-08 12:52:00,
2013-03-08 08:02:00,29.0,28.0,-100.00,SE,144,0.0,2.0,97,0.00,,,-99.99,,2013-03-08 13:02:00,
2013-03-08 08:11:00,28.0,28.0,-100.00,SE,129,0.0,2.0,95,0.00,,,-99.99,,2013-03-08 13:11:00,
2013-03-08 08:22:00,32.0,32.0,-100.00,SE,124,1.0,2.0,95,0.00,,,-99.99,,2013-03-08 13:22:00,
2013-03-08 08:32:00,29.0,28.0,-100.00,SE,132,1.0,2.0,94,0.00,,,-99.99,,2013-03-08 13:32:00,
2013-03-08 08:42:00,31.0,30.0,-100.00,ESE,121,1.0,2.0,93,0.00,,,-99.99,,2013-03-08 13:42:00,
2013-03-08 08:52:00,32.0,30.0,-100.00,SSE,152,2.0,2.0,91,0.00,,,-99.99,,2013-03-08 13:52:00,
2013-03-08 09:03:00,31.0,30.0,-100.00,SSE,155,2.0,2.0,89,0.00,,,-99.99,,2013-03-08 14:03:00,
2013-03-08 09:12:00,31.0,28.0,-100.00,ESE,117,2.0,2.0,88,0.00,,,-99.99,,2013-03-08 14:12:00,
2013-03-08 09:22:00,33.0,30.0,-100.00,SSE,166,2.0,2.0,88,0.00,,,-99.99,,2013-03-08 14:22:00,
2013-03-08 09:32:00,32.0,28.0,-100.00,ESE,114,2.0,4.0,86,0.00,,,-99.99,,2013-03-08 14:32:00,
2013-03-08 09:42:00,31.0,28.0,-100.00,South,179,2.0,4.0,86,0.00,,,-99.99,,2013-03-08 14:42:00,
2013-03-08 09:52:00,33.0,30.0,-100.00,SSW,192,2.0,4.0,85,0.00,,,-99.99,,2013-03-08 14:52:00,
2013-03-08 10:03:00,33.0,30.0,-100.00,SSW,196,1.0,4.0,85,0.00,,,-99.99,,2013-03-08 15:03:00,
2013-03-08 10:12:00,33.0,30.0,-100.00,South,186,1.0,4.0,85,0.00,,,-99.99,,2013-03-08 15:12:00,
2013-03-08 10:22:00,34.0,30.0,-100.00,SW,217,1.0,4.0,86,0.00,,,-99.99,,2013-03-08 15:22:00,
2013-03-08 10:32:00,32.0,28.0,-100.00,SE,138,1.0,4.0,84,0.00,,,-99.99,,2013-03-08 15:32:00,
2013-03-08 10:42:00,33.0,28.0,-100.00,SE,132,1.0,4.0,81,0.00,,,-99.99,,2013-03-08 15:42:00,
2013-03-08 10:53:00,33.0,30.0,-100.00,South,180,2.0,4.0,84,0.00,,,-99.99,,2013-03-08 15:53:00,
2013-03-08 11:01:00,33.0,28.0,-100.00,SE,127,1.0,4.0,81,0.00,,,-99.99,,2013-03-08 16:01:00,
2013-03-08 11:11:00,34.0,30.0,-100.00,SSE,151,1.0,4.0,81,0.00,,,-99.99,,2013-03-08 16:11:00,
2013-03-08 11:22:00,34.0,30.0,-100.00,East,79,1.0,4.0,81,0.00,,,-99.99,,2013-03-08 16:22:00,
2013-03-08 11:32:00,33.0,28.0,-100.00,South,186,2.0,4.0,78,0.00,,,-99.99,,2013-03-08 16:32:00,
2013-03-08 11:42:00,36.0,30.0,-100.00,East,96,1.0,4.0,80,0.00,,,-99.99,,2013-03-08 16:42:00,
2013-03-08 11:52:00,34.0,28.0,-100.00,SW,214,2.0,4.0,77,0.00,,,-99.99,,2013-03-08 16:52:00,
2013-03-08 12:03:00,34.0,28.0,-100.00,South,177,3.0,4.0,76,0.00,,,-99.99,,2013-03-08 17:03:00,
2013-03-08 12:12:00,35.0,30.0,-100.00,SE,135,2.0,4.0,77,0.00,,,-99.99,,2013-03-08 17:12:00,
2013-03-08 12:22:00,39.0,32.0,-100.00,ESE,112,1.0,4.0,76,0.00,,,-99.99,,2013-03-08 17:22:00,
2013-03-08 12:32:00,35.0,30.0,-100.00,SE,146,1.0,4.0,76,0.00,,,-99.99,,2013-03-08 17:32:00,
2013-03-08 12:42:00,36.0,30.0,-100.00,ESE,112,2.0,4.0,76,0.00,,,-99.99,,2013-03-08 17:42:00,
2013-03-08 12:52:00,38.0,30.0,-100.00,ESE,114,2.0,4.0,73,0.00,,,-99.99,,2013-03-08 17:52:00,
2013-03-08 13:02:00,38.0,32.0,-100.00,SE,127,2.0,4.0,75,0.00,,,-99.99,,2013-03-08 18:02:00,
2013-03-08 13:12:00,38.0,30.0,-100.00,SW,217,1.0,4.0,73,0.00,,,-99.99,,2013-03-08 18:12:00,
2013-03-08 13:22:00,39.0,30.0,-100.00,East,80,2.0,4.0,68,0.00,,,-99.99,,2013-03-08 18:22:00,
2013-03-08 13:32:00,37.0,30.0,-100.00,South,179,2.0,4.0,72,0.00,,,-99.99,,2013-03-08 18:32:00,
2013-03-08 13:42:00,38.0,30.0,-100.00,SE,132,2.0,4.0,68,0.00,,,-99.99,,2013-03-08 18:42:00,
2013-03-08 13:52:00,38.0,28.0,-100.00,SE,129,2.0,4.0,67,0.00,,,-99.99,,2013-03-08 18:52:00,
2013-03-08 14:01:00,39.0,28.0,-100.00,SSW,207,3.0,4.0,62,0.00,,,-99.99,,2013-03-08 19:01:00,
2013-03-08 14:11:00,39.0,28.0,-100.00,ESE,105,2.0,4.0,64,0.00,,,-99.99,,2013-03-08 19:11:00,
2013-03-08 14:22:00,40.0,28.0,-100.00,WNW,293,2.0,4.0,62,0.00,,,-99.99,,2013-03-08 19:22:00,
2013-03-08 14:32:00,41.0,30.0,-100.00,SSE,162,2.0,4.0,60,0.00,,,-99.99,,2013-03-08 19:32:00,
2013-03-08 14:42:00,40.0,30.0,-100.00,SE,146,2.0,4.0,63,0.00,,,-99.99,,2013-03-08 19:42:00,
2013-03-08 14:52:00,39.0,30.0,-100.00,South,173,1.0,4.0,67,0.00,,,-99.99,,2013-03-08 19:52:00,
2013-03-08 15:01:00,39.0,30.0,-100.00,SSW,197,4.0,6.0,67,0.00,,,-99.99,,2013-03-08 20:01:00,
2013-03-08 15:11:00,39.0,30.0,-100.00,South,187,2.0,6.0,68,0.00,,,-99.99,,2013-03-08 20:11:00,
2013-03-08 15:22:00,40.0,32.0,-100.00,South,175,2.0,6.0,68,0.00,,,-99.99,,2013-03-08 20:22:00,
2013-03-08 15:32:00,40.0,30.0,-100.00,SSE,160,2.0,6.0,64,0.00,,,-99.99,,2013-03-08 20:32:00,
2013-03-08 15:42:00,41.0,32.0,-100.00,SSW,193,3.0,6.0,67,0.00,,,-99.99,,2013-03-08 20:42:00,
2013-03-08 15:53:00,40.0,30.0,-100.00,SSE,166,2.0,6.0,67,0.00,,,-99.99,,2013-03-08 20:53:00,
2013-03-08 16:02:00,40.0,32.0,-100.00,SSE,156,1.0,6.0,71,0.00,,,-99.99,,2013-03-08 21:02:00,
2013-03-08 16:11:00,39.0,30.0,-100.00,SSE,149,2.0,6.0,69,0.00,,,-99.99,,2013-03-08 21:11:00,
2013-03-08 16:22:00,39.0,30.0,-100.00,SE,136,1.0,6.0,67,0.00,,,-99.99,,2013-03-08 21:22:00,
2013-03-08 16:32:00,40.0,30.0,-100.00,NE,48,1.0,6.0,66,0.00,,,-99.99,,2013-03-08 21:32:00,
2013-03-08 16:42:00,43.0,32.0,-100.00,South,183,1.0,6.0,62,0.00,,,-99.99,,2013-03-08 21:42:00,
2013-03-08 16:52:00,42.0,32.0,-100.00,SSE,160,2.0,6.0,63,0.00,,,-99.99,,2013-03-08 21:52:00,
2013-03-08 17:01:00,40.0,30.0,-100.00,SSE,149,1.0,6.0,64,0.00,,,-99.99,,2013-03-08 22:01:00,
2013-03-08 17:11:00,40.0,28.0,-100.00,SE,124,1.0,6.0,62,0.00,,,-99.99,,2013-03-08 22:11:00,
2013-03-08 17:22:00,39.0,30.0,-100.00,SSE,152,1.0,6.0,66,0.00,,,-99.99,,2013-03-08 22:22:00,
2013-03-08 17:32:00,40.0,32.0,-100.00,West,261,1.0,6.0,68,0.00,,,-99.99,,2013-03-08 22:32:00,
2013-03-08 17:42:00,38.0,30.0,-100.00,South,170,2.0,6.0,68,0.00,,,-99.99,,2013-03-08 22:42:00,
2013-03-08 17:52:00,39.0,28.0,-100.00,South,177,2.0,6.0,66,0.00,,,-99.99,,2013-03-08 22:52:00,
2013-03-08 18:02:00,39.0,30.0,-100.00,SW,224,1.0,6.0,67,0.00,,,-99.99,,2013-03-08 23:02:00,
2013-03-08 18:12:00,38.0,28.0,-100.00,SW,230,0.0,6.0,67,0.00,,,-99.99,,2013-03-08 23:12:00,
2013-03-08 18:22:00,38.0,30.0,-100.00,South,172,0.0,6.0,69,0.00,,,-99.99,,2013-03-08 23:22:00,
2013-03-08 18:32:00,38.0,30.0,-100.00,SW,218,1.0,6.0,72,0.00,,,-99.99,,2013-03-08 23:32:00,
2013-03-08 18:42:00,37.0,30.0,-100.00,SW,217,0.0,6.0,72,0.00,,,-99.99,,2013-03-08 23:42:00,
2013-03-08 18:52:00,36.0,30.0,-100.00,South,182,0.0,6.0,73,0.00,,,-99.99,,2013-03-08 23:52:00,
2013-03-08 19:02:00,36.0,30.0,-100.00,SSE,158,0.0,6.0,76,0.00,,,-99.99,,2013-03-09 00:02:00,
2013-03-08 19:12:00,37.0,32.0,-100.00,WSW,240,1.0,6.0,77,0.00,,,-99.99,,2013-03-09 00:12:00,
2013-03-08 19:22:00,34.0,28.0,-100.00,SW,235,0.0,6.0,77,0.00,,,-99.99,,2013-03-09 00:22:00,
2013-03-08 19:32:00,34.0,28.0,-100.00,SW,232,0.0,6.0,78,0.00,,,-99.99,,2013-03-09 00:32:00,
2013-03-08 19:42:00,35.0,30.0,-100.00,SSW,193,1.0,6.0,78,0.00,,,-99.99,,2013-03-09 00:42:00,
2013-03-08 19:52:00,36.0,30.0,-100.00,SSW,208,0.0,6.0,77,0.00,,,-99.99,,2013-03-09 00:52:00,
2013-03-08 20:02:00,32.0,27.0,-100.00,SW,227,1.0,6.0,78,0.00,,,-99.99,,2013-03-09 01:02:00,
2013-03-08 20:12:00,33.0,28.0,-100.00,SSW,200,0.0,6.0,77,0.00,,,-99.99,,2013-03-09 01:12:00,
2013-03-08 20:22:00,33.0,28.0,-100.00,SW,216,0.0,6.0,77,0.00,,,-99.99,,2013-03-09 01:22:00,
2013-03-08 20:32:00,32.0,27.0,-100.00,West,268,0.0,6.0,78,0.00,,,-99.99,,2013-03-09 01:32:00,
2013-03-08 20:42:00,32.0,27.0,-100.00,WSW,255,0.0,6.0,78,0.00,,,-99.99,,2013-03-09 01:42:00,
2013-03-08 20:51:00,33.0,28.0,-100.00,SSE,159,0.0,6.0,80,0.00,,,-99.99,,2013-03-09 01:51:00,
2013-03-08 21:01:00,32.0,27.0,-100.00,SE,139,0.0,6.0,78,0.00,,,-99.99,,2013-03-09 02:01:00,
2013-03-08 21:11:00,30.0,25.0,-100.00,SW,234,0.0,6.0,78,0.00,,,-99.99,,2013-03-09 02:11:00,
2013-03-08 21:21:00,31.0,27.0,-100.00,WSW,252,0.0,6.0,80,0.00,,,-99.99,,2013-03-09 02:21:00,
2013-03-08 21:31:00,31.0,27.0,-100.00,SSW,196,0.0,6.0,81,0.00,,,-99.99,,2013-03-09 02:31:00,
2013-03-08 21:41:00,30.0,27.0,-100.00,West,262,1.0,6.0,81,0.00,,,-99.99,,2013-03-09 02:41:00,
2013-03-08 21:51:00,31.0,27.0,-100.00,West,278,1.0,6.0,81,0.00,,,-99.99,,2013-03-09 02:51:00,
2013-03-08 22:01:00,31.0,27.0,-100.00,WSW,242,0.0,6.0,81,0.00,,,-99.99,,2013-03-09 03:01:00,
2013-03-08 22:11:00,30.0,27.0,-100.00,North,7,0.0,6.0,82,0.00,,,-99.99,,2013-03-09 03:11:00,
2013-03-08 22:22:00,31.0,27.0,-100.00,ENE,60,0.0,6.0,81,0.00,,,-99.99,,2013-03-09 03:22:00,
2013-03-08 22:31:00,30.0,27.0,-100.00,East,100,0.0,6.0,82,0.00,,,-99.99,,2013-03-09 03:31:00,
2013-03-08 22:41:00,29.0,27.0,-100.00,ESE,112,0.0,6.0,84,0.00,,,-99.99,,2013-03-09 03:41:00,
2013-03-08 22:52:00,28.0,25.0,-100.00,SE,125,0.0,6.0,85,0.00,,,-99.99,,2013-03-09 03:52:00,
2013-03-08 23:01:00,29.0,27.0,-100.00,ESE,112,0.0,6.0,86,0.00,,,-99.99,,2013-03-09 04:01:00,
2013-03-08 23:11:00,26.0,25.0,-100.00,East,81,0.0,6.0,88,0.00,,,-99.99,,2013-03-09 04:11:00,
2013-03-08 23:22:00,26.0,23.0,-100.00,WSW,244,0.0,6.0,89,0.00,,,-99.99,,2013-03-09 04:22:00,
2013-03-08 23:32:00,30.0,28.0,-100.00,NE,38,0.0,6.0,88,0.00,,,-99.99,,2013-03-09 04:32:00,
2013-03-08 23:42:00,29.0,27.0,-100.00,East,91,0.0,6.0,89,0.00,,,-99.99,,2013-03-09 04:42:00,
2013-03-08 23:51:00,27.0,25.0,-100.00,SE,146,0.0,6.0,89,0.00,,,-99.99,,2013-03-09 04:51:00,